Home > Products > Valid Products > MTR

000
SAUS46 KLOX 021159
MTR9L2
METAR K9L2 021155Z AUTO 22004KT 10SM CLR 20/08 A2993 RMK AO2 SLP111
T02000083 10278 20189 56003 TSNO $





000
SAUS46 KLOX 021149
MTRSDB
METAR KSDB 021148Z AUTO 34011KT 10SM CLR 21/09 A3009 RMK AO2 SLP124
T02060089 10239 20200 56007





000
SAUS46 KLOX 021148
MTRCQT
METAR KCQT 021147Z AUTO 00000KT 9SM CLR 19/17 A2988 RMK AO2 SLP116
T01940172 10206 20194 56004 $





000
SAUS46 KLOX 021057
MTR9L2
METAR K9L2 021055Z AUTO 21004KT 10SM CLR 19/07 A2993 RMK AO2 SLP112
T01890067 $





000
SAUS46 KLOX 021049
MTRSDB
METAR KSDB 021048Z AUTO 34013KT 10SM CLR 21/09 A3010 RMK AO2 SLP125
T02060094





000
SAUS46 KLOX 021049
MTRSDB
METAR KSDB 021048Z AUTO 34013KT 10SM CLR 21/09 A3010 RMK AO2 SLP125
T02060094





000
SAUS46 KLOX 021048
MTRCQT
METAR KCQT 021047Z AUTO 00000KT 10SM CLR 20/17 A2988 RMK AO2 SLP116
T02000172 $





000
SAUS46 KLOX 021048
MTRCQT
METAR KCQT 021047Z AUTO 00000KT 10SM CLR 20/17 A2988 RMK AO2 SLP116
T02000172 $





000
SAUS46 KLOX 020958
MTR9L2
METAR K9L2 020955Z AUTO 16003KT 10SM CLR 22/08 A2993 RMK AO2 SLP112
T02220083 $





000
SAUS46 KLOX 020949
MTRSDB
METAR KSDB 020948Z AUTO 36006KT 10SM CLR 21/09 A3010 RMK AO2 SLP127
T02060089





000
SAUS46 KLOX 020949
MTRCQT
METAR KCQT 020947Z AUTO 00000KT 10SM CLR 20/17 A2989 RMK AO2 SLP118
T02000172 $





000
SAUS46 KLOX 020857
MTR9L2
METAR K9L2 020855Z AUTO 19006KT 10SM CLR 23/05 A2994 RMK AO2 SLP112
T02330050 58001 $





000
SAUS46 KLOX 020857
MTR9L2
METAR K9L2 020855Z AUTO 19006KT 10SM CLR 23/05 A2994 RMK AO2 SLP112
T02330050 58001 $





000
SAUS46 KLOX 020849
MTRSDB
METAR KSDB 020848Z AUTO 34015KT 10SM CLR 21/09 A3011 RMK AO2 SLP130
T02110089 58006





000
SAUS46 KLOX 020849
MTRSDB
METAR KSDB 020848Z AUTO 34015KT 10SM CLR 21/09 A3011 RMK AO2 SLP130
T02110089 58006





000
SAUS46 KLOX 020848
MTRCQT
METAR KCQT 020847Z AUTO 00000KT 10SM CLR 20/17 A2989 RMK AO2 SLP120
T02000172 58009 $





000
SAUS46 KLOX 020758
MTR9L2
METAR K9L2 020755Z AUTO 19005KT 10SM CLR 23/04 A2995 RMK AO2 SLP117
T02330044 403830211 TSNO $





000
SAUS46 KLOX 020749
MTRSDB
METAR KSDB 020748Z AUTO 35014KT 10SM CLR 22/09 A3012 RMK AO2 SLP132
T02220094 403330206





000
SAUS46 KLOX 020749
MTRSDB
METAR KSDB 020748Z AUTO 35014KT 10SM CLR 22/09 A3012 RMK AO2 SLP132
T02220094 403330206





000
SAUS46 KLOX 020748
MTRCQT
METAR KCQT 020747Z AUTO 00000KT 10SM CLR 21/17 A2990 RMK AO2 SLP123
T02060172 402830194 $





000
SAUS46 KLOX 020657
MTR9L2
METAR K9L2 020655Z AUTO 22006KT 10SM CLR 25/04 A2994 RMK AO2 SLP114
T02500039 $





000
SAUS46 KLOX 020651 COR
MTRSDB
METAR KSDB 020648Z AUTO 33012G20KT 10SM CLR 23/09 A3013 RMK AO2
SLP137 T02280094





000
SAUS46 KLOX 020649
MTRCQT
METAR KCQT 020647Z AUTO 00000KT 10SM CLR 21/17 A2991 RMK AO2 SLP127
T02060172 $





000
SAUS46 KLOX 020649
MTRCQT
METAR KCQT 020647Z AUTO 00000KT 10SM CLR 21/17 A2991 RMK AO2 SLP127
T02060172 $





000
SAUS46 KLOX 020558
MTR9L2
METAR K9L2 020555Z AUTO 00000KT 10SM CLR 27/07 A2994 RMK AO2 SLP114
T02720067 10378 20272 51014 $





000
SAUS46 KLOX 020549
MTRSDB
METAR KSDB 020548Z AUTO 33010G24KT 10SM CLR 24/08 A3013 RMK AO2
SLP138 T02440078 10317 20233 50007





000
SAUS46 KLOX 020549
MTRSDB
METAR KSDB 020548Z AUTO 33010G24KT 10SM CLR 24/08 A3013 RMK AO2
SLP138 T02440078 10317 20233 50007





000
SAUS46 KLOX 020548
MTRCQT
METAR KCQT 020547Z AUTO 00000KT 10SM CLR 21/17 A2992 RMK AO2 SLP129
T02060172 10261 20206 51009 $





000
SAUS46 KLOX 020548
MTRCQT
METAR KCQT 020547Z AUTO 00000KT 10SM CLR 21/17 A2992 RMK AO2 SLP129
T02060172 10261 20206 51009 $





000
SAUS46 KLOX 020457
MTR9L2
METAR K9L2 020455Z AUTO 34005KT 10SM CLR 28/03 A2993 RMK AO2 SLP113
T02780028 $





000
SAUS46 KLOX 020449
MTRSDB
METAR KSDB 020448Z AUTO 34013KT 10SM CLR 24/09 A3014 RMK AO2 SLP141
T02390089





000
SAUS46 KLOX 020449
MTRCQT
METAR KCQT 020447Z AUTO 28004KT 10SM CLR 21/17 A2991 RMK AO2 SLP127
T02110167 $





000
SAUS46 KLOX 020357
MTR9L2
METAR K9L2 020355Z AUTO 24012KT 10SM CLR 31/M02 A2992 RMK AO2 SLP107
T03111022 $





000
SAUS46 KLOX 020357
MTR9L2
METAR K9L2 020355Z AUTO 24012KT 10SM CLR 31/M02 A2992 RMK AO2 SLP107
T03111022 $





000
SAUS46 KLOX 020353 COR
MTRSDB
METAR KSDB 020348Z AUTO 29007KT 10SM CLR 24/08 A3013 RMK AO2 SLP139
T02440078





000
SAUS46 KLOX 020349
MTRCQT
METAR KCQT 020347Z AUTO 00000KT 10SM FEW014 21/17 A2990 RMK AO2
SLP123 T02110172 $





000
SAUS46 KLOX 020343
MTRCQT
SPECI KCQT 020341Z AUTO VRB03KT 10SM SCT014 21/17 A2990 RMK AO2
T02110172 $





000
SAUS46 KLOX 020343
MTRCQT
SPECI KCQT 020341Z AUTO VRB03KT 10SM SCT014 21/17 A2990 RMK AO2
T02110172 $





000
SAUS46 KLOX 020320
MTRCQT
SPECI KCQT 020319Z AUTO 00000KT 10SM BKN014 22/17 A2989 RMK AO2
T02170172





000
SAUS46 KLOX 020257
MTR9L2
METAR K9L2 020255Z AUTO 25013KT 10SM CLR 33/02 A2990 RMK AO2 SLP101
T03280017 53004 $





000
SAUS46 KLOX 020257
MTR9L2
METAR K9L2 020255Z AUTO 25013KT 10SM CLR 33/02 A2990 RMK AO2 SLP101
T03280017 53004 $





000
SAUS46 KLOX 020249
MTRSDB
METAR KSDB 020248Z AUTO 20011KT 10SM CLR 26/03 A3011 RMK AO2 SLP136
T02560028 56004





000
SAUS46 KLOX 020248
MTRCQT
METAR KCQT 020247Z AUTO VRB04KT 10SM CLR 22/18 A2989 RMK AO2 SLP119
T02220178 53001





000
SAUS46 KLOX 020157
MTR9L2
METAR K9L2 020155Z AUTO 24018G24KT 10SM CLR 34/03 A2989 RMK AO2
SLP098 T03440033 $





000
SAUS46 KLOX 020149
MTRSDB
METAR KSDB 020148Z AUTO 19011KT 10SM CLR 28/01 A3011 RMK AO2 SLP134
T02830011





000
SAUS46 KLOX 020149
MTRCQT
METAR KCQT 020147Z AUTO VRB03KT 10SM CLR 24/18 A2988 RMK AO2 SLP117
T02440178





000
SAUS46 KLOX 020058
MTR9L2
METAR K9L2 020055Z AUTO 24016G25KT 10SM CLR 37/03 A2988 RMK AO2
SLP095 T03720028 $





000
SAUS46 KLOX 020058
MTR9L2
METAR K9L2 020055Z AUTO 24016G25KT 10SM CLR 37/03 A2988 RMK AO2
SLP095 T03720028 $





000
SAUS46 KLOX 020049
MTRSDB
METAR KSDB 020048Z AUTO 17010KT 10SM CLR 30/01 A3012 RMK AO2 SLP136
T03000006





000
SAUS46 KLOX 020048
MTRCQT
METAR KCQT 020047Z AUTO VRB03KT 10SM CLR 26/18 A2987 RMK AO2 SLP114
T02560178





000
SAUS46 KLOX 012357
MTR9L2
METAR K9L2 012355Z AUTO 16004KT 10SM CLR 38/M02 A2989 RMK AO2 SLP096
T03781017 10383 20328 56018 $





000
SAUS46 KLOX 012357
MTR9L2
METAR K9L2 012355Z AUTO 16004KT 10SM CLR 38/M02 A2989 RMK AO2 SLP096
T03781017 10383 20328 56018 $





000
SAUS46 KLOX 012349
MTRSDB
METAR KSDB 012348Z AUTO 21010KT 10SM CLR 32/M01 A3013 RMK AO2 SLP137
T03171006 10333 20294 56005





000
SAUS46 KLOX 012349
MTRCQT
METAR KCQT 012347Z AUTO 10SM CLR 26/17 A2989 RMK AO2 SLP118
T02560172 10283 20250 56010





000
SAUS46 KLOX 012257
MTR9L2
METAR K9L2 012255Z AUTO 27005KT 10SM CLR 38/M02 A2990 RMK AO2 SLP100
T03781017 $





000
SAUS46 KLOX 012257
MTR9L2
METAR K9L2 012255Z AUTO 27005KT 10SM CLR 38/M02 A2990 RMK AO2 SLP100
T03781017 $





000
SAUS46 KLOX 012249
MTRCQT
METAR KCQT 012247Z AUTO 27008KT 10SM CLR 26/17 A2990 RMK AO2 SLP121
T02560172





000
SAUS46 KLOX 012249
MTRCQT
METAR KCQT 012247Z AUTO 27008KT 10SM CLR 26/17 A2990 RMK AO2 SLP121
T02560172





000
SAUS46 KLOX 012249
MTRSDB
METAR KSDB 012248Z AUTO 19012KT 150V230 10SM CLR 33/M03 A3013 RMK
AO2 SLP136 T03281028





000
SAUS46 KLOX 012157
MTR9L2
METAR K9L2 012155Z AUTO VRB06KT 10SM CLR 37/M02 A2992 RMK AO2 SLP106
T03721017 $





000
SAUS46 KLOX 012149
MTRSDB
METAR KSDB 012148Z AUTO 21011G18KT 10SM CLR 33/M02 A3013 RMK AO2
SLP138 T03281022





000
SAUS46 KLOX 012148
MTRCQT
METAR KCQT 012147Z AUTO VRB05KT 10SM CLR 26/17 A2991 RMK AO2 SLP124
T02560172





000
SAUS46 KLOX 012058
MTR9L2
METAR K9L2 012055Z AUTO 15007KT 10SM CLR 37/M01 A2994 RMK AO2 SLP113
T03721011 58016 $





000
SAUS46 KLOX 012058
MTR9L2
METAR K9L2 012055Z AUTO 15007KT 10SM CLR 37/M01 A2994 RMK AO2 SLP113
T03721011 58016 $





000
SAUS46 KLOX 012049
MTRSDB
METAR KSDB 012048Z AUTO 15011G19KT 110V200 10SM CLR 33/00 A3014 RMK
AO2 SLP141 T03280000 58011





000
SAUS46 KLOX 012048
MTRCQT
METAR KCQT 012047Z AUTO 27005KT 10SM CLR 26/17 A2992 RMK AO2 SLP129
T02610172 58014





000
SAUS46 KLOX 011957
MTR9L2
METAR K9L2 011955Z AUTO VRB05KT 10SM CLR 37/M02 A2997 RMK AO2 SLP121
T03671022 $





000
SAUS46 KLOX 011949
MTRSDB
METAR KSDB 011948Z AUTO 18009G17KT 10SM CLR 33/00 A3016 RMK AO2
SLP145 T03280000





000
SAUS46 KLOX 011948
MTRCQT
METAR KCQT 011947Z AUTO VRB05KT 10SM CLR 27/18 A2994 RMK AO2 SLP134
T02720178





000
SAUS46 KLOX 011858
MTR9L2
METAR K9L2 011855Z AUTO 15006KT 10SM CLR 35/02 A2998 RMK AO2 SLP126
T03500017 $





000
SAUS46 KLOX 011858
MTR9L2
METAR K9L2 011855Z AUTO 15006KT 10SM CLR 35/02 A2998 RMK AO2 SLP126
T03500017 $





000
SAUS46 KLOX 011849
MTRSDB
METAR KSDB 011848Z AUTO 22010G17KT 190V250 10SM CLR 31/M02 A3017 RMK
AO2 SLP152 T03111017





000
SAUS46 KLOX 011848
MTRCQT
METAR KCQT 011847Z AUTO 00000KT 10SM CLR 28/18 A2995 RMK AO2 SLP138
T02830178





000
SAUS46 KLOX 011759
MTR9L2
METAR K9L2 011755Z AUTO 14004KT 10SM CLR 33/07 A2999 RMK AO2 SLP132
T03280067 10333 20211 58008 $





000
SAUS46 KLOX 011759
MTR9L2
METAR K9L2 011755Z AUTO 14004KT 10SM CLR 33/07 A2999 RMK AO2 SLP132
T03280067 10333 20211 58008 $





000
SAUS46 KLOX 011749
MTRSDB
METAR KSDB 011748Z AUTO 22006G15KT 10SM CLR 29/00 A3018 RMK AO2
SLP157 T02940000 10306 20206 58000





000
SAUS46 KLOX 011749
MTRSDB
METAR KSDB 011748Z AUTO 22006G15KT 10SM CLR 29/00 A3018 RMK AO2
SLP157 T02940000 10306 20206 58000





000
SAUS46 KLOX 011748
MTRCQT
METAR KCQT 011747Z AUTO 00000KT 10SM CLR 27/17 A2996 RMK AO2 SLP143
T02670172 10267 20200 58007





000
SAUS46 KLOX 011748
MTRCQT
METAR KCQT 011747Z AUTO 00000KT 10SM CLR 27/17 A2996 RMK AO2 SLP143
T02670172 10267 20200 58007





000
SAUS46 KLOX 011732
MTRCQT
METAR KCQT 011647Z AUTO 00000KT 10SM SCT022 24/18 A2997 RMK AO2
SLP148 T02440178





000
SAUS46 KLOX 011730
MTRSDB
METAR KSDB 011648Z AUTO 26006KT 10SM CLR 28/04 A3019 RMK AO2 SLP160
T02780039





000
SAUS46 KLOX 011657
MTR9L2
METAR K9L2 011655Z AUTO VRB04KT 10SM CLR 30/09 A3001 RMK AO2 SLP138
T03000089 $





000
SAUS46 KLOX 011457
MTR9L2
METAR K9L2 011455Z AUTO 21005KT 10SM CLR 24/10 A3002 RMK AO2 SLP143
T02440100 51010 $





000
SAUS46 KLOX 011457
MTR9L2
METAR K9L2 011455Z AUTO 21005KT 10SM CLR 24/10 A3002 RMK AO2 SLP143
T02440100 51010 $





000
SAUS46 KLOX 011454
MTRCQT
SPECI KCQT 011452Z AUTO 00000KT 10SM OVC015 21/17 A2998 RMK AO2
T02110167





000
SAUS46 KLOX 011454
MTRCQT
SPECI KCQT 011452Z AUTO 00000KT 10SM OVC015 21/17 A2998 RMK AO2
T02110167





000
SAUS46 KLOX 011450
MTRSDB
METAR KSDB 011448Z AUTO 34011KT 10SM CLR 23/09 A3018 RMK AO2 SLP161
T02330089 53008





000
SAUS46 KLOX 011449
MTRCQT
METAR KCQT 011447Z AUTO 00000KT 10SM OVC014 21/17 A2998 RMK AO2
SLP150 T02110167 52008





000
SAUS46 KLOX 011358
MTR9L2
METAR K9L2 011355Z AUTO 18006KT 10SM CLR 22/09 A3001 RMK AO2 SLP143
T02170089 $





000
SAUS46 KLOX 011358
MTR9L2
METAR K9L2 011355Z AUTO 18006KT 10SM CLR 22/09 A3001 RMK AO2 SLP143
T02170089 $





000
SAUS46 KLOX 011349
MTRCQT
METAR KCQT 011347Z AUTO 00000KT 10SM OVC012 21/17 A2998 RMK AO2
SLP148 T02060167





000
SAUS46 KLOX 011349
MTRSDB
METAR KSDB 011348Z AUTO 33009KT 10SM CLR 21/09 A3017 RMK AO2 SLP158
T02110094





000
SAUS46 KLOX 011257
MTR9L2
METAR K9L2 011255Z AUTO 19007KT 10SM CLR 21/08 A2999 RMK AO2 SLP134
T02110078 $





000
SAUS46 KLOX 011249
MTRSDB
METAR KSDB 011248Z AUTO 33011KT 10SM CLR 21/09 A3016 RMK AO2 SLP153
T02060094





000
SAUS46 KLOX 011248
MTRCQT
METAR KCQT 011247Z AUTO 00000KT 9SM OVC010 20/17 A2996 RMK AO2
SLP143 T02000172





000
SAUS46 KLOX 011248
MTRCQT
METAR KCQT 011247Z AUTO 00000KT 9SM OVC010 20/17 A2996 RMK AO2
SLP143 T02000172





000
SAUS46 KLOX 011242
MTRCQT
SPECI KCQT 011240Z AUTO 00000KT 8SM OVC010 20/17 A2996 RMK AO2
T02000172





000
SAUS46 KLOX 011242
MTRCQT
SPECI KCQT 011240Z AUTO 00000KT 8SM OVC010 20/17 A2996 RMK AO2
T02000172





000
SAUS46 KLOX 011159
MTR9L2
METAR K9L2 011155Z AUTO 18007KT 10SM CLR 22/07 A2999 RMK AO2 SLP130
T02220072 10294 20222 55001 $





000
SAUS46 KLOX 011159
MTR9L2
METAR K9L2 011155Z AUTO 18007KT 10SM CLR 22/07 A2999 RMK AO2 SLP130
T02220072 10294 20222 55001 $





000
SAUS46 KLOX 011149
MTRSDB
METAR KSDB 011148Z AUTO 32010KT 10SM CLR 21/09 A3015 RMK AO2 SLP148
T02060094 10228 20206 56007





000
SAUS46 KLOX 011149
MTRSDB
METAR KSDB 011148Z AUTO 32010KT 10SM CLR 21/09 A3015 RMK AO2 SLP148
T02060094 10228 20206 56007





000
SAUS46 KLOX 011148
MTRCQT
METAR KCQT 011147Z AUTO 00000KT 6SM BR OVC008 20/18 A2996 RMK AO2
SLP141 T02000178 10200 20194 58002





000
SAUS46 KLOX 011148
MTRCQT
METAR KCQT 011147Z AUTO 00000KT 6SM BR OVC008 20/18 A2996 RMK AO2
SLP141 T02000178 10200 20194 58002





000
SAUS46 KLOX 011056
MTR9L2
METAR K9L2 011055Z AUTO 20006KT 10SM CLR 23/06 A2998 RMK AO2 SLP127
T02330056 $





000
SAUS46 KLOX 011049
MTRSDB
METAR KSDB 011048Z AUTO 29008KT 10SM CLR 21/09 A3016 RMK AO2 SLP150
T02110094





000
SAUS46 KLOX 011049
MTRSDB
METAR KSDB 011048Z AUTO 29008KT 10SM CLR 21/09 A3016 RMK AO2 SLP150
T02110094





000
SAUS46 KLOX 011049
MTRCQT
METAR KCQT 011047Z AUTO 00000KT 6SM BR OVC007 20/18 A2996 RMK AO2
SLP141 T02000178





000
SAUS46 KLOX 011049
MTRCQT
METAR KCQT 011047Z AUTO 00000KT 6SM BR OVC007 20/18 A2996 RMK AO2
SLP141 T02000178





000
SAUS46 KLOX 010957
MTR9L2
METAR K9L2 010955Z AUTO 24010KT 10SM CLR 27/10 A2998 RMK AO2 SLP127
T02670100 $





000
SAUS46 KLOX 010949
MTRSDB
METAR KSDB 010948Z AUTO 33013KT 10SM CLR 21/10 A3017 RMK AO2 SLP152
T02110100





000
SAUS46 KLOX 010949
MTRCQT
METAR KCQT 010947Z AUTO 00000KT 6SM BR OVC005 20/18 A2996 RMK AO2
SLP144 T02000178





000
SAUS46 KLOX 010949
MTRCQT
METAR KCQT 010947Z AUTO 00000KT 6SM BR OVC005 20/18 A2996 RMK AO2
SLP144 T02000178





000
SAUS46 KLOX 010949
MTRSDB
METAR KSDB 010948Z AUTO 33013KT 10SM CLR 21/10 A3017 RMK AO2 SLP152
T02110100





000
SAUS46 KLOX 010938
MTRCQT
SPECI KCQT 010936Z AUTO 00000KT 5SM BR OVC005 19/18 A2997 RMK AO2
T01940178





000
SAUS46 KLOX 010854 COR
MTRSDB
METAR KSDB 010848Z AUTO 31010KT 10SM CLR 22/11 A3018 RMK AO2 SLP156
T02170111 57004





000
SAUS46 KLOX 010854 COR
MTRSDB
METAR KSDB 010848Z AUTO 31010KT 10SM CLR 22/11 A3018 RMK AO2 SLP156
T02170111 57004





000
SAUS46 KLOX 010848
MTRCQT
METAR KCQT 010847Z AUTO 00000KT 5SM BR OVC004 19/18 A2996 RMK AO2
SLP144 T01940183 50001





000
SAUS46 KLOX 010827
MTRCQT
SPECI KCQT 010826Z AUTO 00000KT 6SM BR OVC004 20/18 A2997 RMK AO2
T02000183





000
SAUS46 KLOX 010758
MTR9L2
METAR K9L2 010755Z AUTO 24010KT 10SM CLR 28/03 A2998 RMK AO2 SLP127
T02780033 403890222 $





000
SAUS46 KLOX 010758
MTR9L2
METAR K9L2 010755Z AUTO 24010KT 10SM CLR 28/03 A2998 RMK AO2 SLP127
T02780033 403890222 $





000
SAUS46 KLOX 010749
MTRSDB
METAR KSDB 010748Z AUTO 28007KT 250V310 10SM CLR 22/11 A3018 RMK AO2
SLP158 T02220106 403110206





000
SAUS46 KLOX 010749
MTRSDB
METAR KSDB 010748Z AUTO 28007KT 250V310 10SM CLR 22/11 A3018 RMK AO2
SLP158 T02220106 403110206





000
SAUS46 KLOX 010748
MTRCQT
METAR KCQT 010747Z AUTO 00000KT 8SM OVC005 20/18 A2996 RMK AO2
SLP144 T02000183 402890194





000
SAUS46 KLOX 010748
MTRCQT
METAR KCQT 010747Z AUTO 00000KT 8SM OVC005 20/18 A2996 RMK AO2
SLP144 T02000183 402890194





000
SAUS46 KLOX 010657
MTR9L2
METAR K9L2 010655Z AUTO 24010KT 10SM CLR 29/03 A2999 RMK AO2 SLP128
T02890028 $





000
SAUS46 KLOX 010649
MTRSDB
METAR KSDB 010648Z AUTO 24004KT 10SM CLR 22/12 A3019 RMK AO2 SLP160
T02170117





000
SAUS46 KLOX 010649
MTRSDB
METAR KSDB 010648Z AUTO 24004KT 10SM CLR 22/12 A3019 RMK AO2 SLP160
T02170117





000
SAUS46 KLOX 010648
MTRCQT
METAR KCQT 010647Z AUTO 00000KT 9SM OVC007 20/18 A2996 RMK AO2
SLP143 T02000178





000
SAUS46 KLOX 010631
MTRCQT
SPECI KCQT 010630Z AUTO 00000KT 9SM BKN007 20/18 A2996 RMK AO2
T02000178





000
SAUS46 KLOX 010557
MTR9L2
METAR K9L2 010555Z AUTO 24012KT 10SM CLR 29/06 A2999 RMK AO2 SLP129
T02940061 10372 20294 50008 $





000
SAUS46 KLOX 010557
MTR9L2
METAR K9L2 010555Z AUTO 24012KT 10SM CLR 29/06 A2999 RMK AO2 SLP129
T02940061 10372 20294 50008 $





000
SAUS46 KLOX 010549
MTRSDB
METAR KSDB 010548Z AUTO 22005KT 10SM CLR 22/12 A3019 RMK AO2 SLP164
T02170122 10300 20211 50004





000
SAUS46 KLOX 010548
MTRCQT
METAR KCQT 010547Z AUTO 00000KT 10SM SCT008 20/18 A2996 RMK AO2
SLP142 T02000178 10261 20200 50007





000
SAUS46 KLOX 010548
MTRCQT
METAR KCQT 010547Z AUTO 00000KT 10SM SCT008 20/18 A2996 RMK AO2
SLP142 T02000178 10261 20200 50007





000
SAUS46 KLOX 010541
MTRCQT
SPECI KCQT 010540Z AUTO 00000KT 10SM FEW008 20/18 A2996 RMK AO2
T02000178





000
SAUS46 KLOX 010459
MTR9L2
METAR K9L2 010455Z AUTO 24014KT 10SM CLR 29/08 A2999 RMK AO2 SLP131
T02940078 $





000
SAUS46 KLOX 010449
MTRSDB
METAR KSDB 010448Z AUTO 20007KT 10SM CLR 22/12 A3021 RMK AO2 SLP169
T02220117





000
SAUS46 KLOX 010449
MTRSDB
METAR KSDB 010448Z AUTO 20007KT 10SM CLR 22/12 A3021 RMK AO2 SLP169
T02220117





000
SAUS46 KLOX 010448
MTRCQT
METAR KCQT 010447Z AUTO VRB04KT 10SM SCT010 21/18 A2997 RMK AO2
SLP145 T02060178





000
SAUS46 KLOX 010448
MTRCQT
METAR KCQT 010447Z AUTO VRB04KT 10SM SCT010 21/18 A2997 RMK AO2
SLP145 T02060178





000
SAUS46 KLOX 010357
MTR9L2
METAR K9L2 010355Z AUTO 23013KT 10SM CLR 30/13 A2998 RMK AO2 SLP129
T03000128 $





000
SAUS46 KLOX 010349
MTRSDB
METAR KSDB 010348Z AUTO 19008KT 10SM CLR 23/13 A3020 RMK AO2 SLP166
T02280128





000
SAUS46 KLOX 010348
MTRCQT
METAR KCQT 010347Z AUTO 27005KT 10SM BKN010 22/19 A2996 RMK AO2
SLP142 T02170189





000
SAUS46 KLOX 010346
MTRCQT
SPECI KCQT 010344Z AUTO 00000KT 10SM BKN010 22/19 A2996 RMK AO2
T02170189





000
SAUS46 KLOX 010257
MTR9L2
METAR K9L2 010255Z AUTO 24015KT 10SM CLR 32/12 A2996 RMK AO2 SLP122
T03170122 53007 $





000
SAUS46 KLOX 010257
MTR9L2
METAR K9L2 010255Z AUTO 24015KT 10SM CLR 32/12 A2996 RMK AO2 SLP122
T03170122 53007 $





000
SAUS46 KLOX 010249
MTRSDB
METAR KSDB 010248Z AUTO 21009KT 10SM CLR 24/13 A3018 RMK AO2 SLP162
T02390128 53003





000
SAUS46 KLOX 010248
MTRCQT
METAR KCQT 010247Z AUTO 26004KT 10SM CLR 23/18 A2994 RMK AO2 SLP135
T02280183 55002





000
SAUS46 KLOX 010248
MTRCQT
METAR KCQT 010247Z AUTO 26004KT 10SM CLR 23/18 A2994 RMK AO2 SLP135
T02280183 55002





000
SAUS46 KLOX 010150
MTRSDB
METAR KSDB 010148Z AUTO 18015G22KT 10SM CLR 26/13 A3016 RMK AO2
SLP152 T02610128





000
SAUS46 KLOX 010149
MTRCQT
METAR KCQT 010147Z AUTO 27006KT 10SM CLR 24/18 A2993 RMK AO2 SLP132
T02440183





000
SAUS46 KLOX 010058
MTR9L2
METAR K9L2 010055Z AUTO 23018G22KT 10SM CLR 36/13 A2993 RMK AO2
WSHFT 2343 SLP112 T03560128 $





000
SAUS46 KLOX 010049
MTRSDB
METAR KSDB 010048Z AUTO 17018KT 10SM CLR 28/12 A3016 RMK AO2 PK WND
16028/0024 SLP149 T02780122





000
SAUS46 KLOX 010049
MTRSDB
METAR KSDB 010048Z AUTO 17018KT 10SM CLR 28/12 A3016 RMK AO2 PK WND
16028/0024 SLP149 T02780122





000
SAUS46 KLOX 010048
MTRCQT
METAR KCQT 010047Z AUTO VRB04KT 10SM CLR 25/18 A2993 RMK AO2 SLP133
T02500183





000
SAUS46 KLOX 010048
MTRCQT
METAR KCQT 010047Z AUTO VRB04KT 10SM CLR 25/18 A2993 RMK AO2 SLP133
T02500183





000
SAUS46 KLOX 010002
MTR9L2
SPECI K9L2 010000Z AUTO 23015G24KT 10SM CLR 37/13 A2994 RMK AO2
WSHFT 2343 $





000
SAUS46 KLOX 010002
MTR9L2
SPECI K9L2 010000Z AUTO 23015G24KT 10SM CLR 37/13 A2994 RMK AO2
WSHFT 2343 $





000
SAUS46 KLOX 312357
MTR9L2
METAR K9L2 312355Z AUTO 25017G24KT 10SM CLR 37/13 A2994 RMK AO2
SLP113 T03720128 10389 20328 56021 $





000
SAUS46 KLOX 312357
MTR9L2
METAR K9L2 312355Z AUTO 25017G24KT 10SM CLR 37/13 A2994 RMK AO2
SLP113 T03720128 10389 20328 56021 $





000
SAUS46 KLOX 312349
MTRCQT
METAR KCQT 312347Z AUTO VRB03KT 10SM CLR 26/18 A2994 RMK AO2 SLP137
T02560183 10289 20250 56013





000
SAUS46 KLOX 312349
MTRSDB
METAR KSDB 312348Z AUTO 17019G27KT 10SM CLR 30/12 A3017 RMK AO2 PK
WND 17027/2348 SLP152 T03000122 10311 20272 58014





000
SAUS46 KLOX 312258
MTR9L2
METAR K9L2 312255Z AUTO VRB04KT 10SM CLR 37/09 A2995 RMK AO2 SLP116
T03720094 $





000
SAUS46 KLOX 312258
MTR9L2
METAR K9L2 312255Z AUTO VRB04KT 10SM CLR 37/09 A2995 RMK AO2 SLP116
T03720094 $





000
SAUS46 KLOX 312249
MTRSDB
METAR KSDB 312248Z AUTO 17014G21KT 10SM CLR 30/13 A3018 RMK AO2
SLP155 T03000128





000
SAUS46 KLOX 312249
MTRCQT
METAR KCQT 312247Z AUTO VRB06KT 10SM CLR 26/19 A2995 RMK AO2 SLP140
T02610189





000
SAUS46 KLOX 312237
MTRCQT
METAR KCQT 312147Z AUTO 27006KT 10SM CLR 27/19 A2997 RMK AO2 SLP146
T02670189





000
SAUS46 KLOX 312236
MTRSDB
METAR KSDB 312148Z AUTO 16015G22KT 10SM CLR 31/13 A3020 RMK AO2
SLP161 T03060133





000
SAUS46 KLOX 312057
MTR9L2
METAR K9L2 312055Z AUTO 00000KT 10SM CLR 37/11 A3000 RMK AO2 SLP135
T03670111 58016 $





000
SAUS46 KLOX 312057
MTR9L2
METAR K9L2 312055Z AUTO 00000KT 10SM CLR 37/11 A3000 RMK AO2 SLP135
T03670111 58016 $





000
SAUS46 KLOX 311950
MTRSDB
METAR KSDB 311948Z AUTO 16014G23KT 10SM CLR 30/15 A3022 RMK AO2
SLP172 T03000150





000
SAUS46 KLOX 311949
MTRCQT
METAR KCQT 311947Z AUTO 00000KT 8SM CLR 29/19 A2999 RMK AO2 SLP153
T02890194





000
SAUS46 KLOX 311857
MTR9L2
METAR K9L2 311855Z AUTO 15005KT 10SM CLR 34/13 A3004 RMK AO2 SLP148
T03390133 $





000
SAUS46 KLOX 311857
MTR9L2
METAR K9L2 311855Z AUTO 15005KT 10SM CLR 34/13 A3004 RMK AO2 SLP148
T03390133 $





000
SAUS46 KLOX 311849
MTRSDB
METAR KSDB 311848Z AUTO 17013KT 10SM CLR 29/16 A3023 RMK AO2 SLP176
T02890156





000
SAUS46 KLOX 311848
MTRCQT
METAR KCQT 311847Z AUTO VRB03KT 8SM CLR 27/19 A3001 RMK AO2 SLP161
T02720189





000
SAUS46 KLOX 311758
MTR9L2
METAR K9L2 311755Z AUTO 13004KT 10SM CLR 33/14 A3006 RMK AO2 SLP153
T03280144 10328 20222 56002 $





000
SAUS46 KLOX 311754
MTRCQT
SPECI KCQT 311753Z AUTO 00000KT 7SM SCT019 26/19 A3002 RMK AO2
T02560189





000
SAUS46 KLOX 311749
MTRSDB
METAR KSDB 311748Z AUTO 21011KT 10SM 27/16 A3023 RMK AO2 SLP176
T02720161 10272 20217





000
SAUS46 KLOX 311748
MTRCQT
METAR KCQT 311747Z AUTO 00000KT 7SM BKN018 26/19 A3002 RMK AO2
SLP164 T02560194 10256 20206 58003





000
SAUS46 KLOX 311656
MTR9L2
METAR K9L2 311655Z AUTO VRB04KT 10SM CLR 31/15 A3005 RMK AO2 SLP153
T03060150 $





000
SAUS46 KLOX 311649
MTRCQT
METAR KCQT 311647Z AUTO 00000KT 7SM OVC015 22/18 A3004 RMK AO2
SLP168 T02220183





000
SAUS46 KLOX 311649
MTRSDB
METAR KSDB 311648Z AUTO 21009KT 10SM CLR 26/16 RMK AO2 SLPNO
T02560156





000
SAUS46 KLOX 311646
MTRCQT
SPECI KCQT 311644Z AUTO 00000KT 7SM OVC015 23/18 A3004 RMK AO2
T02280183





000
SAUS46 KLOX 311549
MTRSDB
METAR KSDB 311548Z AUTO 20005KT 10SM CLR 24/16 RMK AO2 SLPNO
T02440156





000
SAUS46 KLOX 311548
MTRCQT
METAR KCQT 311547Z AUTO 00000KT 7SM OVC013 22/18 A3004 RMK AO2
SLP170 T02170183





000
SAUS46 KLOX 311457
MTR9L2
METAR K9L2 311455Z AUTO 18007KT 10SM CLR 26/16 A3006 RMK AO2 SLP158
T02560156 51010 $





000
SAUS46 KLOX 311457
MTR9L2
METAR K9L2 311455Z AUTO 18007KT 10SM CLR 26/16 A3006 RMK AO2 SLP158
T02560156 51010 $





000
SAUS46 KLOX 311449
MTRSDB
METAR KSDB 311448Z AUTO 22004KT 10SM CLR 23/15 RMK AO2 SLPNO
T02280150





000
SAUS46 KLOX 311448
MTRCQT
METAR KCQT 311447Z AUTO 00000KT 6SM HZ OVC011 21/18 A3003 RMK AO2
SLP167 T02110183 53012





000
SAUS46 KLOX 311358
MTR9L2
METAR K9L2 311355Z AUTO 19007KT 10SM CLR 23/16 A3006 RMK AO2 SLP157
T02330156 TSNO $





000
SAUS46 KLOX 311349
MTRSDB
METAR KSDB 311348Z AUTO 22004KT 10SM CLR 22/15 RMK AO2 SLPNO
T02220150





000
SAUS46 KLOX 311348
MTRCQT
METAR KCQT 311347Z AUTO 00000KT 6SM BR OVC010 21/18 A3002 RMK AO2
SLP163 T02060183





000
SAUS46 KLOX 311259
MTR9L2
METAR K9L2 311255Z AUTO 22006KT 10SM CLR 22/16 A3004 RMK AO2 SLP152
T02220161 $





000
SAUS46 KLOX 311252 COR
MTRSDB
METAR KSDB 311248Z AUTO 20005KT 10SM CLR 22/15 RMK AO2 SLPNO
T02170150





000
SAUS46 KLOX 311252 COR
MTRSDB
METAR KSDB 311248Z AUTO 20005KT 10SM CLR 22/15 RMK AO2 SLPNO
T02170150





000
SAUS46 KLOX 311248
MTRCQT
METAR KCQT 311247Z AUTO 00000KT 9SM OVC011 21/18 A3001 RMK AO2
SLP158 T02060183





000
SAUS46 KLOX 311158
MTR9L2
METAR K9L2 311155Z AUTO 17005KT 10SM CLR 23/15 A3003 RMK AO2 SLP147
T02280150 10283 20228 55006 TSNO $





000
SAUS46 KLOX 311158
MTR9L2
METAR K9L2 311155Z AUTO 17005KT 10SM CLR 23/15 A3003 RMK AO2 SLP147
T02280150 10283 20228 55006 TSNO $





000
SAUS46 KLOX 311149
MTRSDB
METAR KSDB 311148Z AUTO 20005KT 10SM OVC100 22/14 RMK AO2 SLPNO
70024 T02220144 10228 20206





000
SAUS46 KLOX 311148
MTRCQT
METAR KCQT 311147Z AUTO 00000KT 10SM OVC014 21/18 A3000 RMK AO2
SLP156 T02060183 10211 20200 55002





000
SAUS46 KLOX 311120
MTRCQT
SPECI KCQT 311118Z AUTO 00000KT 10SM BKN014 21/18 A3000 RMK AO2
T02060183





000
SAUS46 KLOX 311059
MTR9L2
METAR K9L2 311055Z AUTO 18007KT 10SM CLR 24/14 A3003 RMK AO2 SLP146
T02390144 TSNO $





000
SAUS46 KLOX 311049
MTRSDB
METAR KSDB 311048Z AUTO 18007KT 10SM CLR 23/15 RMK AO2 SLPNO
T02280150





000
SAUS46 KLOX 311048
MTRCQT
METAR KCQT 311047Z AUTO 00000KT 10SM CLR 20/18 A2999 RMK AO2 SLP154
T02000183





000
SAUS46 KLOX 311048
MTRCQT
METAR KCQT 311047Z AUTO 00000KT 10SM CLR 20/18 A2999 RMK AO2 SLP154
T02000183





000
SAUS46 KLOX 310958
MTR9L2
METAR K9L2 310955Z AUTO 27003KT 10SM CLR 24/15 A3004 RMK AO2 SLP149
T02440150 TSNO $





000
SAUS46 KLOX 310949
MTRSDB
METAR KSDB 310948Z AUTO 19007KT 10SM CLR 22/15 RMK AO2 SLPNO
T02220150





000
SAUS46 KLOX 310948
MTRCQT
METAR KCQT 310947Z AUTO 00000KT 10SM CLR 21/18 A3000 RMK AO2 SLP155
T02060183





000
SAUS46 KLOX 310948
MTRCQT
METAR KCQT 310947Z AUTO 00000KT 10SM CLR 21/18 A3000 RMK AO2 SLP155
T02060183





000
SAUS46 KLOX 310858
MTR9L2
METAR K9L2 310855Z AUTO 29004KT 10SM FEW100 26/15 A3005 RMK AO2
SLP151 T02560150 57005 TSNO $





000
SAUS46 KLOX 310849
MTRSDB
METAR KSDB 310848Z AUTO 18008KT 10SM CLR 22/16 RMK AO2 SLPNO
T02170156





000
SAUS46 KLOX 310849
MTRSDB
METAR KSDB 310848Z AUTO 18008KT 10SM CLR 22/16 RMK AO2 SLPNO
T02170156





000
SAUS46 KLOX 310848
MTRCQT
METAR KCQT 310847Z AUTO 00000KT 10SM CLR 21/18 A3000 RMK AO2 SLP158
T02110178 58005





000
SAUS46 KLOX 310758
MTR9L2
METAR K9L2 310755Z AUTO 01004KT 10SM CLR 26/14 A3006 RMK AO2 SLP154
T02560144 403610211 $





000
SAUS46 KLOX 310758
MTR9L2
METAR K9L2 310755Z AUTO 01004KT 10SM CLR 26/14 A3006 RMK AO2 SLP154
T02560144 403610211 $





000
SAUS46 KLOX 310749
MTRSDB
METAR KSDB 310748Z AUTO 20006KT 10SM CLR 21/16 RMK AO2 SLPNO
T02110156 403060194





000
SAUS46 KLOX 310748
MTRCQT
METAR KCQT 310747Z AUTO 27003KT 10SM CLR 21/18 A3001 RMK AO2 SLP159
T02110178 402830200





000
SAUS46 KLOX 310748
MTRCQT
METAR KCQT 310747Z AUTO 27003KT 10SM CLR 21/18 A3001 RMK AO2 SLP159
T02110178 402830200





000
SAUS46 KLOX 310700
MTR9L2
METAR K9L2 310655Z AUTO 27003KT 10SM CLR 27/14 A3006 RMK AO2 SLP155
T02720144 $





000
SAUS46 KLOX 310649
MTRSDB
METAR KSDB 310648Z AUTO 20008KT 10SM CLR 21/16 RMK AO2 SLPNO
T02060156





000
SAUS46 KLOX 310649
MTRSDB
METAR KSDB 310648Z AUTO 20008KT 10SM CLR 21/16 RMK AO2 SLPNO
T02060156





000
SAUS46 KLOX 310648
MTRCQT
METAR KCQT 310647Z AUTO 00000KT 10SM CLR 21/18 A3003 RMK AO2 SLP166
T02110183





000
SAUS46 KLOX 310648
MTRCQT
METAR KCQT 310647Z AUTO 00000KT 10SM CLR 21/18 A3003 RMK AO2 SLP166
T02110183





000
SAUS46 KLOX 310558
MTR9L2
METAR K9L2 310555Z AUTO 18007KT 10SM CLR 28/15 A3007 RMK AO2 SLP157
T02830150 10339 20278 53017 $





000
SAUS46 KLOX 310558
MTR9L2
METAR K9L2 310555Z AUTO 18007KT 10SM CLR 28/15 A3007 RMK AO2 SLP157
T02830150 10339 20278 53017 $





000
SAUS46 KLOX 310550
MTRSDB
METAR KSDB 310548Z AUTO 20007KT 10SM CLR 22/16 RMK AO2 SLPNO
T02220161 10272 20222





000
SAUS46 KLOX 310550
MTRSDB
METAR KSDB 310548Z AUTO 20007KT 10SM CLR 22/16 RMK AO2 SLPNO
T02220161 10272 20222





000
SAUS46 KLOX 310549
MTRCQT
METAR KCQT 310547Z AUTO 28003KT 10SM CLR 21/18 A3002 RMK AO2 SLP163
T02110178 10256 20211 53016





000
SAUS46 KLOX 310549
MTRCQT
METAR KCQT 310547Z AUTO 28003KT 10SM CLR 21/18 A3002 RMK AO2 SLP163
T02110178 10256 20211 53016





000
SAUS46 KLOX 310500
MTR9L2
METAR K9L2 310455Z AUTO 18009KT 10SM CLR 29/14 A3004 RMK AO2 SLP150
T02940139 $





000
SAUS46 KLOX 310449
MTRSDB
METAR KSDB 310448Z AUTO 22005KT 10SM CLR 23/17 RMK AO2 SLPNO
T02280167





000
SAUS46 KLOX 310449
MTRSDB
METAR KSDB 310448Z AUTO 22005KT 10SM CLR 23/17 RMK AO2 SLPNO
T02280167





000
SAUS46 KLOX 310448
MTRCQT
METAR KCQT 310447Z AUTO VRB04KT 10SM CLR 21/17 A3000 RMK AO2 SLP157
T02110172





000
SAUS46 KLOX 310358
MTR9L2
METAR K9L2 310355Z AUTO 21009KT 10SM CLR 30/14 A3002 RMK AO2 SLP145
T03000139 $





000
SAUS46 KLOX 310349
MTRSDB
METAR KSDB 310348Z AUTO 20006KT 10SM BKN090 25/15 RMK AO2 SLPNO
T02500150





000
SAUS46 KLOX 310348
MTRCQT
METAR KCQT 310347Z AUTO 00000KT 10SM CLR 22/18 A2998 RMK AO2 SLP151
T02170178





000
SAUS46 KLOX 310258
MTR9L2
METAR K9L2 310255Z AUTO 20010KT 10SM CLR 31/13 A3001 RMK AO2 SLP142
T03110128 53001 $





000
SAUS46 KLOX 310258
MTR9L2
METAR K9L2 310255Z AUTO 20010KT 10SM CLR 31/13 A3001 RMK AO2 SLP142
T03110128 53001 $





000
SAUS46 KLOX 310249
MTRSDB
METAR KSDB 310248Z AUTO 18005KT 10SM CLR 26/15 RMK AO2 SLPNO
T02560150





000
SAUS46 KLOX 310248
MTRCQT
METAR KCQT 310247Z AUTO 00000KT 10SM CLR 23/18 A2997 RMK AO2 SLP147
T02280178 53007





000
SAUS46 KLOX 310200
MTR9L2
METAR K9L2 310155Z AUTO 21010KT 10SM CLR 32/13 A3001 RMK AO2 SLP140
T03220128 $





000
SAUS46 KLOX 310149
MTRCQT
METAR KCQT 310147Z AUTO VRB03KT 10SM CLR 24/18 A2995 RMK AO2 SLP140
T02390183





000
SAUS46 KLOX 310149
MTRSDB
METAR KSDB 310148Z AUTO 22005KT 10SM SCT110 27/16 RMK AO2 SLPNO
T02670161





000
SAUS46 KLOX 310149
MTRCQT
METAR KCQT 310147Z AUTO VRB03KT 10SM CLR 24/18 A2995 RMK AO2 SLP140
T02390183





000
SAUS46 KLOX 310058
MTR9L2
METAR K9L2 310055Z AUTO 21016KT 10SM CLR 32/14 A3000 RMK AO2 SLP140
T03170139 $





000
SAUS46 KLOX 310049
MTRSDB
METAR KSDB 310048Z AUTO 25004KT 10SM CLR 26/16 RMK AO2 SLPNO
T02610161





000
SAUS46 KLOX 310049
MTRSDB
METAR KSDB 310048Z AUTO 25004KT 10SM CLR 26/16 RMK AO2 SLPNO
T02610161





000
SAUS46 KLOX 310048
MTRCQT
METAR KCQT 310047Z AUTO 28005KT 10SM CLR 25/18 A2996 RMK AO2 SLP141
T02500178





000
SAUS46 KLOX 310048
MTRCQT
METAR KCQT 310047Z AUTO 28005KT 10SM CLR 25/18 A2996 RMK AO2 SLP141
T02500178





000
SAUS46 KLOX 310000
MTR9L2
METAR K9L2 302355Z AUTO 22010KT 10SM CLR 34/13 A3001 RMK AO2
TSB2258E43 SLP141 T03390133 10361 20306 56012 $





000
SAUS46 KLOX 302349
MTRCQT
METAR KCQT 302347Z AUTO VRB03KT 10SM CLR 26/18 A2995 RMK AO2 SLP140
T02560178 10283 20244 56007





000
SAUS46 KLOX 302349
MTRSDB
METAR KSDB 302348Z AUTO 27009KT 10SM CLR 22/16 RMK AO2 RAE09 SLPNO
P0000 60024 T02220156 10306 20194





000
SAUS46 KLOX 302348
MTR9L2
SPECI K9L2 302346Z AUTO 20007KT 10SM CLR 34/14 A3002 RMK AO2
TSB2258E43 $





000
SAUS46 KLOX 302303
MTR9L2
SPECI K9L2 302301Z AUTO 16009KT 130V200 10SM TS CLR 34/12 A3001 RMK
AO2 TSB2258 $





000
SAUS46 KLOX 302303
MTR9L2
SPECI K9L2 302301Z AUTO 16009KT 130V200 10SM TS CLR 34/12 A3001 RMK
AO2 TSB2258 $





000
SAUS46 KLOX 302258
MTR9L2
METAR K9L2 302255Z AUTO VRB05KT 10SM CLR 35/10 A3001 RMK AO2 SLP140
T03500100 $





000
SAUS46 KLOX 302249
MTRCQT
METAR KCQT 302247Z AUTO VRB06KT 10SM CLR 27/18 A2995 RMK AO2 SLP141
T02670178





000
SAUS46 KLOX 302249
MTRSDB
METAR KSDB 302248Z AUTO 27010KT 9SM -RA FEW060 FEW075 BKN120 19/17
RMK AO2 SLPNO P0003 T01940172





000
SAUS46 KLOX 302158
MTR9L2
METAR K9L2 302155Z AUTO 11006G15KT 10SM CLR 36/09 A3003 RMK AO2
TSB00E15 SLP147 T03560094 $





000
SAUS46 KLOX 302150
MTRSDB
METAR KSDB 302148Z AUTO 00000KT 10SM -RA FEW043 OVC095 25/16 RMK AO2
PK WND 13030/2053 RAB2052 SLPNO P0019 T02500161





000
SAUS46 KLOX 302149
MTRCQT
METAR KCQT 302147Z AUTO 00000KT 10SM CLR 27/18 A2997 RMK AO2 SLP147
T02670183





000
SAUS46 KLOX 302120
MTR9L2
SPECI K9L2 302118Z AUTO 04007KT 10SM CLR 36/09 A3004 RMK AO2
TSB00E15 $





000
SAUS46 KLOX 302107
MTRSDB
SPECI KSDB 302105Z AUTO 14007KT 3SM RA FEW044 BKN075 OVC100 23/15
RMK AO2 PK WND 13030/2053 RAB2052 P0018 T02280150 $





000
SAUS46 KLOX 302106
MTR9L2
SPECI K9L2 302103Z AUTO 06006KT 10SM TS CLR 36/09 A3005 RMK AO2
TSB00 $





000
SAUS46 KLOX 302103 COR
MTRSDB
SPECI KSDB 302057Z AUTO 10007G30KT 050V150 1 3/4SM +RA FEW036 BKN075
OVC095 22/16 RMK AO2 PK WND 13030/2053 RAB52 P0009 T02170156 $





000
SAUS46 KLOX 302058
MTR9L2
METAR K9L2 302055Z AUTO 05007KT 10SM CLR 35/09 A3005 RMK AO2 SLP152
T03500094 58015 $





000
SAUS46 KLOX 302058
MTR9L2
METAR K9L2 302055Z AUTO 05007KT 10SM CLR 35/09 A3005 RMK AO2 SLP152
T03500094 58015 $





000
SAUS46 KLOX 302049
MTRSDB
METAR KSDB 302048Z AUTO 11010KT 10SM SCT055 BKN075 OVC090 25/16
A3024 RMK AO2 PK WND 10027/2014 RAB11E48 SLP177 P0002 60002
T02500156 57004





000
SAUS46 KLOX 302048
MTRCQT
METAR KCQT 302047Z AUTO 00000KT 10SM CLR 27/18 A2998 RMK AO2 SLP148
T02720183 56012





000
SAUS46 KLOX 301958
MTR9L2
METAR K9L2 301955Z AUTO VRB06KT 10SM CLR 35/09 A3007 RMK AO2 SLP157
T03500094 $





000
SAUS46 KLOX 301950
MTRSDB
METAR KSDB 301948Z AUTO 09011G19KT 10SM OVC055 28/12 A3024 RMK AO2
SLP175 T02830122





000
SAUS46 KLOX 301950
MTRSDB
METAR KSDB 301948Z AUTO 09011G19KT 10SM OVC055 28/12 A3024 RMK AO2
SLP175 T02830122





000
SAUS46 KLOX 301948
MTRCQT
METAR KCQT 301947Z AUTO 10SM CLR 28/19 A2998 RMK AO2 SLP149
T02830189





000
SAUS46 KLOX 301858
MTR9L2
METAR K9L2 301855Z AUTO 00000KT 10SM CLR 33/10 A3009 RMK AO2 SLP164
T03280100 $





000
SAUS46 KLOX 301858
MTR9L2
METAR K9L2 301855Z AUTO 00000KT 10SM CLR 33/10 A3009 RMK AO2 SLP164
T03280100 $





000
SAUS46 KLOX 301849
MTRSDB
METAR KSDB 301848Z AUTO 09007KT 10SM SCT060 BKN080 BKN090 29/12
A3025 RMK AO2 SLP178 T02940122





000
SAUS46 KLOX 301848
MTRCQT
METAR KCQT 301847Z AUTO 00000KT 9SM CLR 26/19 A3000 RMK AO2 SLP157
T02610189





000
SAUS46 KLOX 301758
MTR9L2
METAR K9L2 301755Z AUTO 00000KT 10SM FEW100 31/14 A3010 RMK AO2
SLP168 60000 T03110139 10311 20211 53003 $





000
SAUS46 KLOX 301758
MTR9L2
METAR K9L2 301755Z AUTO 00000KT 10SM FEW100 31/14 A3010 RMK AO2
SLP168 60000 T03110139 10311 20211 53003 $





000
SAUS46 KLOX 301749
MTRSDB
METAR KSDB 301748Z AUTO 06008KT 10SM FEW060 SCT080 OVC100 28/13
A3025 RMK AO2 SLP179 T02830128 10300 20244 51003





000
SAUS46 KLOX 301749
MTRSDB
METAR KSDB 301748Z AUTO 06008KT 10SM FEW060 SCT080 OVC100 28/13
A3025 RMK AO2 SLP179 T02830128 10300 20244 51003





000
SAUS46 KLOX 301748
MTRCQT
METAR KCQT 301747Z AUTO 00000KT 9SM CLR 24/18 A3001 RMK AO2 SLP160
T02390178 10239 20200 51007





000
SAUS46 KLOX 301748
MTRCQT
METAR KCQT 301747Z AUTO 00000KT 9SM CLR 24/18 A3001 RMK AO2 SLP160
T02390178 10239 20200 51007





000
SAUS46 KLOX 301658
MTR9L2
METAR K9L2 301655Z AUTO 01005KT 10SM FEW100 30/14 A3008 RMK AO2
SLP162 T03000139 TSNO $





000
SAUS46 KLOX 301649
MTRSDB
METAR KSDB 301648Z AUTO 07009KT 10SM BKN110 28/13 A3025 RMK AO2
SLP178 T02780133





000
SAUS46 KLOX 301649
MTRSDB
METAR KSDB 301648Z AUTO 07009KT 10SM BKN110 28/13 A3025 RMK AO2
SLP178 T02780133





000
SAUS46 KLOX 301648
MTRCQT
METAR KCQT 301647Z AUTO VRB04KT 10SM FEW120 23/18 A3000 RMK AO2
SLP157 T02330178





000
SAUS46 KLOX 301648
MTRCQT
METAR KCQT 301647Z AUTO VRB04KT 10SM FEW120 23/18 A3000 RMK AO2
SLP157 T02330178





000
SAUS46 KLOX 301558
MTR9L2
METAR K9L2 301555Z AUTO 00000KT 10SM FEW050 BKN080 OVC090 26/17
A3008 RMK AO2 RAE25 SLP166 P0000 T02560172 $





000
SAUS46 KLOX 301558
MTR9L2
METAR K9L2 301555Z AUTO 00000KT 10SM FEW050 BKN080 OVC090 26/17
A3008 RMK AO2 RAE25 SLP166 P0000 T02560172 $





000
SAUS46 KLOX 301549
MTRSDB
METAR KSDB 301548Z AUTO VRB04KT 10SM SCT095 27/12 A3025 RMK AO2
SLP178 T02720122





000
SAUS46 KLOX 301548
MTRCQT
METAR KCQT 301547Z AUTO 00000KT 10SM CLR 22/18 A3000 RMK AO2 SLP156
T02220178





000
SAUS46 KLOX 301548
MTRCQT
METAR KCQT 301547Z AUTO 00000KT 10SM CLR 22/18 A3000 RMK AO2 SLP156
T02220178





000
SAUS46 KLOX 301500
MTR9L2
METAR K9L2 301455Z AUTO VRB03KT 10SM -RA SCT080 BKN095 24/17 A3009
RMK AO2 RAB32 SLP167 P0000 60000 T02390167 51018 $





000
SAUS46 KLOX 301500
MTR9L2
METAR K9L2 301455Z AUTO VRB03KT 10SM -RA SCT080 BKN095 24/17 A3009
RMK AO2 RAB32 SLP167 P0000 60000 T02390167 51018 $





000
SAUS46 KLOX 301449
MTRSDB
METAR KSDB 301448Z AUTO 05006KT 10SM CLR 27/07 A3024 RMK AO2 SLP175
T02670072 53014





000
SAUS46 KLOX 301448
MTRCQT
METAR KCQT 301447Z AUTO 00000KT 10SM CLR 21/17 A2999 RMK AO2 SLP152
T02110172 53010





000
SAUS46 KLOX 301358
MTR9L2
METAR K9L2 301355Z AUTO 34005KT 10SM CLR 22/14 A3007 RMK AO2 SLP162
T02220144 $





000
SAUS46 KLOX 301358
MTR9L2
METAR K9L2 301355Z AUTO 34005KT 10SM CLR 22/14 A3007 RMK AO2 SLP162
T02220144 $





000
SAUS46 KLOX 301349
MTRSDB
METAR KSDB 301348Z AUTO 00000KT 10SM CLR 26/07 A3023 RMK AO2 SLP168
T02560067





000
SAUS46 KLOX 301348
MTRCQT
METAR KCQT 301347Z AUTO 00000KT 10SM FEW100 21/17 A2997 RMK AO2
SLP147 T02060172





000
SAUS46 KLOX 301257
MTR9L2
METAR K9L2 301255Z AUTO 00000KT 10SM CLR 22/14 A3006 RMK AO2 SLP158
T02220139 $





000
SAUS46 KLOX 301250
MTRSDB
METAR KSDB 301248Z AUTO 27006KT 10SM CLR 24/08 A3020 RMK AO2 SLP159
T02440078





000
SAUS46 KLOX 301250
MTRSDB
METAR KSDB 301248Z AUTO 27006KT 10SM CLR 24/08 A3020 RMK AO2 SLP159
T02440078





000
SAUS46 KLOX 301249
MTRCQT
METAR KCQT 301247Z AUTO 00000KT 10SM CLR 20/17 A2997 RMK AO2 SLP146
T02000172





000
SAUS46 KLOX 301249
MTRCQT
METAR KCQT 301247Z AUTO 00000KT 10SM CLR 20/17 A2997 RMK AO2 SLP146
T02000172





    US Dept of Commerce
    National Oceanic and Atmospheric Administration
    National Weather Service
    1325 East West Highway
    Silver Spring, MD 20910
    Page Author: NWS Internet Services Team
Disclaimer
Information Quality
Credits
Glossary
Privacy Policy
Freedom of Information Act (FOIA)
About Us
Career Opportunities